sensor_id;sensor_type;location;lat;lon;timestamp;temperature;humidity
69543;SHT31;56762;49.494;11.768;2023-03-12T00:00:08;-0.59;83.25
69543;SHT31;56762;49.494;11.768;2023-03-12T00:02:37;-0.62;83.41
69543;SHT31;56762;49.494;11.768;2023-03-12T00:05:05;-0.66;83.56
69543;SHT31;56762;49.494;11.768;2023-03-12T00:07:33;-0.63;83.22
69543;SHT31;56762;49.494;11.768;2023-03-12T00:10:04;-0.65;83.51
69543;SHT31;56762;49.494;11.768;2023-03-12T00:12:32;-0.63;83.65
69543;SHT31;56762;49.494;11.768;2023-03-12T00:15:01;-0.65;83.59
69543;SHT31;56762;49.494;11.768;2023-03-12T00:17:28;-0.65;83.81
69543;SHT31;56762;49.494;11.768;2023-03-12T00:19:57;-0.68;83.78
69543;SHT31;56762;49.494;11.768;2023-03-12T00:22:25;-0.69;84.16
69543;SHT31;56762;49.494;11.768;2023-03-12T00:24:54;-0.70;84.16
69543;SHT31;56762;49.494;11.768;2023-03-12T00:27:25;-0.76;84.45
69543;SHT31;56762;49.494;11.768;2023-03-12T00:29:53;-0.76;84.32
69543;SHT31;56762;49.494;11.768;2023-03-12T00:32:21;-0.79;84.23
69543;SHT31;56762;49.494;11.768;2023-03-12T00:34:50;-0.83;84.70
69543;SHT31;56762;49.494;11.768;2023-03-12T00:37:18;-0.83;84.14
69543;SHT31;56762;49.494;11.768;2023-03-12T00:39:46;-0.84;84.39
69543;SHT31;56762;49.494;11.768;2023-03-12T00:42:14;-0.82;84.38
69543;SHT31;56762;49.494;11.768;2023-03-12T00:44:43;-0.73;84.30
69543;SHT31;56762;49.494;11.768;2023-03-12T00:47:12;-0.68;83.86
69543;SHT31;56762;49.494;11.768;2023-03-12T00:49:40;-0.63;83.52
69543;SHT31;56762;49.494;11.768;2023-03-12T00:52:08;-0.56;83.17
69543;SHT31;56762;49.494;11.768;2023-03-12T00:54:36;-0.55;83.20
69543;SHT31;56762;49.494;11.768;2023-03-12T00:57:04;-0.55;83.32
69543;SHT31;56762;49.494;11.768;2023-03-12T00:59:31;-0.59;83.54
69543;SHT31;56762;49.494;11.768;2023-03-12T01:02:01;-0.61;83.38
69543;SHT31;56762;49.494;11.768;2023-03-12T01:04:28;-0.58;83.57
69543;SHT31;56762;49.494;11.768;2023-03-12T01:06:56;-0.53;82.54
69543;SHT31;56762;49.494;11.768;2023-03-12T01:09:24;-0.52;83.16
69543;SHT31;56762;49.494;11.768;2023-03-12T01:11:52;-0.51;82.66
69543;SHT31;56762;49.494;11.768;2023-03-12T01:14:20;-0.52;82.99
69543;SHT31;56762;49.494;11.768;2023-03-12T01:16:49;-0.49;83.09
69543;SHT31;56762;49.494;11.768;2023-03-12T01:19:19;-0.55;83.23
69543;SHT31;56762;49.494;11.768;2023-03-12T01:21:47;-0.49;83.43
69543;SHT31;56762;49.494;11.768;2023-03-12T01:24:15;-0.49;83.50
69543;SHT31;56762;49.494;11.768;2023-03-12T01:26:43;-0.48;83.47
69543;SHT31;56762;49.494;11.768;2023-03-12T01:29:10;-0.46;83.11
69543;SHT31;56762;49.494;11.768;2023-03-12T01:31:38;-0.48;83.39
69543;SHT31;56762;49.494;11.768;2023-03-12T01:34:09;-0.46;83.55
69543;SHT31;56762;49.494;11.768;2023-03-12T01:36:39;-0.46;83.38
69543;SHT31;56762;49.494;11.768;2023-03-12T01:39:07;-0.48;83.72
69543;SHT31;56762;49.494;11.768;2023-03-12T01:41:35;-0.46;83.40
69543;SHT31;56762;49.494;11.768;2023-03-12T01:44:03;-0.44;82.99
69543;SHT31;56762;49.494;11.768;2023-03-12T01:46:32;-0.42;83.29
69543;SHT31;56762;49.494;11.768;2023-03-12T01:49:04;-0.38;82.96
69543;SHT31;56762;49.494;11.768;2023-03-12T01:51:37;-0.38;83.46
69543;SHT31;56762;49.494;11.768;2023-03-12T01:54:10;-0.41;83.02
69543;SHT31;56762;49.494;11.768;2023-03-12T01:56:40;-0.36;82.74
69543;SHT31;56762;49.494;11.768;2023-03-12T01:59:13;-0.38;83.10
69543;SHT31;56762;49.494;11.768;2023-03-12T02:01:42;-0.41;83.11
69543;SHT31;56762;49.494;11.768;2023-03-12T02:04:12;-0.38;83.02
69543;SHT31;56762;49.494;11.768;2023-03-12T02:06:45;-0.38;83.03
69543;SHT31;56762;49.494;11.768;2023-03-12T02:09:17;-0.38;83.19
69543;SHT31;56762;49.494;11.768;2023-03-12T02:11:46;-0.41;83.39
69543;SHT31;56762;49.494;11.768;2023-03-12T02:14:15;-0.41;82.84
69543;SHT31;56762;49.494;11.768;2023-03-12T02:16:44;-0.44;83.16
69543;SHT31;56762;49.494;11.768;2023-03-12T02:19:18;-0.46;83.80
69543;SHT31;56762;49.494;11.768;2023-03-12T02:21:47;-0.46;83.11
69543;SHT31;56762;49.494;11.768;2023-03-12T02:24:25;-0.48;82.80
69543;SHT31;56762;49.494;11.768;2023-03-12T02:26:58;-0.46;83.44
69543;SHT31;56762;49.494;11.768;2023-03-12T02:29:26;-0.46;83.17
69543;SHT31;56762;49.494;11.768;2023-03-12T02:31:58;-0.45;83.56
69543;SHT31;56762;49.494;11.768;2023-03-12T02:34:28;-0.46;83.11
69543;SHT31;56762;49.494;11.768;2023-03-12T02:36:56;-0.49;83.28
69543;SHT31;56762;49.494;11.768;2023-03-12T02:39:23;-0.61;83.33
69543;SHT31;56762;49.494;11.768;2023-03-12T02:41:54;-0.69;83.58
69543;SHT31;56762;49.494;11.768;2023-03-12T02:44:26;-0.77;83.71
69543;SHT31;56762;49.494;11.768;2023-03-12T02:46:56;-0.80;83.81
69543;SHT31;56762;49.494;11.768;2023-03-12T02:49:27;-0.90;84.00
69543;SHT31;56762;49.494;11.768;2023-03-12T02:51:56;-0.96;84.55
69543;SHT31;56762;49.494;11.768;2023-03-12T02:54:25;-1.04;84.41
69543;SHT31;56762;49.494;11.768;2023-03-12T02:56:54;-1.10;84.69
69543;SHT31;56762;49.494;11.768;2023-03-12T02:59:24;-1.13;84.79
69543;SHT31;56762;49.494;11.768;2023-03-12T03:01:53;-1.18;85.10
69543;SHT31;56762;49.494;11.768;2023-03-12T03:04:23;-1.21;85.08
69543;SHT31;56762;49.494;11.768;2023-03-12T03:06:51;-1.27;85.66
69543;SHT31;56762;49.494;11.768;2023-03-12T03:09:19;-1.24;85.48
69543;SHT31;56762;49.494;11.768;2023-03-12T03:11:47;-1.25;85.58
69543;SHT31;56762;49.494;11.768;2023-03-12T03:14:16;-1.24;85.29
69543;SHT31;56762;49.494;11.768;2023-03-12T03:16:46;-1.25;85.15
69543;SHT31;56762;49.494;11.768;2023-03-12T03:19:14;-1.24;85.90
69543;SHT31;56762;49.494;11.768;2023-03-12T03:21:42;-1.24;85.86
69543;SHT31;56762;49.494;11.768;2023-03-12T03:24:10;-1.24;85.91
69543;SHT31;56762;49.494;11.768;2023-03-12T03:26:38;-1.25;86.02
69543;SHT31;56762;49.494;11.768;2023-03-12T03:29:07;-1.20;86.18
69543;SHT31;56762;49.494;11.768;2023-03-12T03:31:35;-1.15;86.39
69543;SHT31;56762;49.494;11.768;2023-03-12T03:34:04;-1.10;86.27
69543;SHT31;56762;49.494;11.768;2023-03-12T03:36:33;-1.03;85.62
69543;SHT31;56762;49.494;11.768;2023-03-12T03:39:01;-0.99;85.50
69543;SHT31;56762;49.494;11.768;2023-03-12T03:41:30;-0.94;85.31
69543;SHT31;56762;49.494;11.768;2023-03-12T03:43:59;-0.90;85.11
69543;SHT31;56762;49.494;11.768;2023-03-12T03:46:27;-0.84;85.06
69543;SHT31;56762;49.494;11.768;2023-03-12T03:48:55;-0.82;84.85
69543;SHT31;56762;49.494;11.768;2023-03-12T03:51:25;-0.68;84.70
69543;SHT31;56762;49.494;11.768;2023-03-12T03:53:53;-0.69;84.75
69543;SHT31;56762;49.494;11.768;2023-03-12T03:56:21;-0.63;84.64
69543;SHT31;56762;49.494;11.768;2023-03-12T03:58:49;-0.68;84.73
69543;SHT31;56762;49.494;11.768;2023-03-12T04:01:17;-0.65;84.43
69543;SHT31;56762;49.494;11.768;2023-03-12T04:03:45;-0.65;84.50
69543;SHT31;56762;49.494;11.768;2023-03-12T04:06:13;-0.61;84.80
69543;SHT31;56762;49.494;11.768;2023-03-12T04:08:43;-0.56;84.69
69543;SHT31;56762;49.494;11.768;2023-03-12T04:11:12;-0.53;84.56
69543;SHT31;56762;49.494;11.768;2023-03-12T04:13:41;-0.51;84.07
69543;SHT31;56762;49.494;11.768;2023-03-12T04:16:09;-0.51;84.17
69543;SHT31;56762;49.494;11.768;2023-03-12T04:18:38;-0.51;83.28
69543;SHT31;56762;49.494;11.768;2023-03-12T04:21:08;-0.53;82.66
69543;SHT31;56762;49.494;11.768;2023-03-12T04:23:37;-0.55;83.08
69543;SHT31;56762;49.494;11.768;2023-03-12T04:26:06;-0.58;83.93
69543;SHT31;56762;49.494;11.768;2023-03-12T04:28:36;-0.58;83.59
69543;SHT31;56762;49.494;11.768;2023-03-12T04:31:07;-0.56;84.50
69543;SHT31;56762;49.494;11.768;2023-03-12T04:33:37;-0.58;84.33
69543;SHT31;56762;49.494;11.768;2023-03-12T04:36:06;-0.56;83.43
69543;SHT31;56762;49.494;11.768;2023-03-12T04:38:35;-0.55;83.79
69543;SHT31;56762;49.494;11.768;2023-03-12T04:41:05;-0.59;83.77
69543;SHT31;56762;49.494;11.768;2023-03-12T04:43:35;-0.55;84.11
69543;SHT31;56762;49.494;11.768;2023-03-12T04:46:03;-0.58;84.37
69543;SHT31;56762;49.494;11.768;2023-03-12T04:48:32;-0.59;83.56
69543;SHT31;56762;49.494;11.768;2023-03-12T04:51:01;-0.59;83.98
69543;SHT31;56762;49.494;11.768;2023-03-12T04:53:29;-0.58;84.08
69543;SHT31;56762;49.494;11.768;2023-03-12T04:55:57;-0.58;84.24
69543;SHT31;56762;49.494;11.768;2023-03-12T04:58:25;-0.52;84.44
69543;SHT31;56762;49.494;11.768;2023-03-12T05:00:54;-0.46;84.30
69543;SHT31;56762;49.494;11.768;2023-03-12T05:03:22;-0.46;83.81
69543;SHT31;56762;49.494;11.768;2023-03-12T05:05:50;-0.46;83.82
69543;SHT31;56762;49.494;11.768;2023-03-12T05:08:18;-0.46;84.05
69543;SHT31;56762;49.494;11.768;2023-03-12T05:10:46;-0.48;84.47
69543;SHT31;56762;49.494;11.768;2023-03-12T05:13:15;-0.48;84.46
69543;SHT31;56762;49.494;11.768;2023-03-12T05:15:44;-0.51;84.34
69543;SHT31;56762;49.494;11.768;2023-03-12T05:18:14;-0.51;84.34
69543;SHT31;56762;49.494;11.768;2023-03-12T05:20:42;-0.46;84.22
69543;SHT31;56762;49.494;11.768;2023-03-12T05:23:10;-0.45;83.92
69543;SHT31;56762;49.494;11.768;2023-03-12T05:25:38;-0.48;83.72
69543;SHT31;56762;49.494;11.768;2023-03-12T05:28:07;-0.51;84.32
69543;SHT31;56762;49.494;11.768;2023-03-12T05:30:34;-0.52;84.36
69543;SHT31;56762;49.494;11.768;2023-03-12T05:33:02;-0.53;84.21
69543;SHT31;56762;49.494;11.768;2023-03-12T05:35:31;-0.52;84.55
69543;SHT31;56762;49.494;11.768;2023-03-12T05:37:59;-0.55;84.29
69543;SHT31;56762;49.494;11.768;2023-03-12T05:40:27;-0.56;84.39
69543;SHT31;56762;49.494;11.768;2023-03-12T05:42:55;-0.58;83.95
69543;SHT31;56762;49.494;11.768;2023-03-12T05:45:22;-0.59;84.25
69543;SHT31;56762;49.494;11.768;2023-03-12T05:47:54;-0.61;84.52
69543;SHT31;56762;49.494;11.768;2023-03-12T05:50:24;-0.61;84.77
69543;SHT31;56762;49.494;11.768;2023-03-12T05:52:54;-0.61;84.77
69543;SHT31;56762;49.494;11.768;2023-03-12T05:55:22;-0.62;84.59
69543;SHT31;56762;49.494;11.768;2023-03-12T05:57:50;-0.61;85.14
69543;SHT31;56762;49.494;11.768;2023-03-12T06:00:18;-0.62;85.16
69543;SHT31;56762;49.494;11.768;2023-03-12T06:02:46;-0.68;84.79
69543;SHT31;56762;49.494;11.768;2023-03-12T06:05:14;-0.68;85.00
69543;SHT31;56762;49.494;11.768;2023-03-12T06:07:42;-0.69;84.70
69543;SHT31;56762;49.494;11.768;2023-03-12T06:10:12;-0.75;84.84
69543;SHT31;56762;49.494;11.768;2023-03-12T06:12:39;-0.72;84.80
69543;SHT31;56762;49.494;11.768;2023-03-12T06:15:08;-0.69;84.99
69543;SHT31;56762;49.494;11.768;2023-03-12T06:17:39;-0.65;84.57
69543;SHT31;56762;49.494;11.768;2023-03-12T06:20:08;-0.56;84.78
69543;SHT31;56762;49.494;11.768;2023-03-12T06:22:36;-0.46;84.46
69543;SHT31;56762;49.494;11.768;2023-03-12T06:25:05;-0.32;84.38
69543;SHT31;56762;49.494;11.768;2023-03-12T06:27:34;-0.17;82.87
69543;SHT31;56762;49.494;11.768;2023-03-12T06:30:03;-0.07;83.12
69543;SHT31;56762;49.494;11.768;2023-03-12T06:32:32;0.07;83.05
69543;SHT31;56762;49.494;11.768;2023-03-12T06:35:00;0.20;82.79
69543;SHT31;56762;49.494;11.768;2023-03-12T06:37:30;0.30;82.78
69543;SHT31;56762;49.494;11.768;2023-03-12T06:39:58;0.43;82.41
69543;SHT31;56762;49.494;11.768;2023-03-12T06:42:26;0.48;82.42
69543;SHT31;56762;49.494;11.768;2023-03-12T06:44:56;0.56;81.97
69543;SHT31;56762;49.494;11.768;2023-03-12T06:47:23;0.65;80.87
69543;SHT31;56762;49.494;11.768;2023-03-12T06:49:51;0.69;81.42
69543;SHT31;56762;49.494;11.768;2023-03-12T06:52:19;0.82;80.96
69543;SHT31;56762;49.494;11.768;2023-03-12T06:54:47;0.85;79.80
69543;SHT31;56762;49.494;11.768;2023-03-12T06:57:15;0.93;79.44
69543;SHT31;56762;49.494;11.768;2023-03-12T06:59:43;0.98;79.99
69543;SHT31;56762;49.494;11.768;2023-03-12T07:02:15;1.05;79.67
69543;SHT31;56762;49.494;11.768;2023-03-12T07:04:43;1.10;80.05
69543;SHT31;56762;49.494;11.768;2023-03-12T07:07:11;1.20;79.29
69543;SHT31;56762;49.494;11.768;2023-03-12T07:09:39;1.29;79.38
69543;SHT31;56762;49.494;11.768;2023-03-12T07:12:08;1.28;77.97
69543;SHT31;56762;49.494;11.768;2023-03-12T07:14:36;1.33;78.57
69543;SHT31;56762;49.494;11.768;2023-03-12T07:17:05;1.37;78.19
69543;SHT31;56762;49.494;11.768;2023-03-12T07:19:34;1.44;78.25
69543;SHT31;56762;49.494;11.768;2023-03-12T07:22:02;1.49;78.57
69543;SHT31;56762;49.494;11.768;2023-03-12T07:24:30;1.54;78.57
69543;SHT31;56762;49.494;11.768;2023-03-12T07:26:57;1.56;78.87
69543;SHT31;56762;49.494;11.768;2023-03-12T07:29:25;1.57;78.14
69543;SHT31;56762;49.494;11.768;2023-03-12T07:31:53;1.59;77.86
69543;SHT31;56762;49.494;11.768;2023-03-12T07:34:20;1.60;77.64
69543;SHT31;56762;49.494;11.768;2023-03-12T07:36:50;1.64;78.02
69543;SHT31;56762;49.494;11.768;2023-03-12T07:39:19;1.66;78.34
69543;SHT31;56762;49.494;11.768;2023-03-12T07:41:46;1.61;77.62
69543;SHT31;56762;49.494;11.768;2023-03-12T07:44:14;1.68;77.33
69543;SHT31;56762;49.494;11.768;2023-03-12T07:46:43;1.81;77.57
69543;SHT31;56762;49.494;11.768;2023-03-12T07:49:11;1.91;76.91
69543;SHT31;56762;49.494;11.768;2023-03-12T07:51:38;1.91;76.73
69543;SHT31;56762;49.494;11.768;2023-03-12T07:54:08;2.08;76.75
69543;SHT31;56762;49.494;11.768;2023-03-12T07:56:35;2.15;76.55
69543;SHT31;56762;49.494;11.768;2023-03-12T07:59:03;2.28;76.69
69543;SHT31;56762;49.494;11.768;2023-03-12T08:01:32;2.45;76.60
69543;SHT31;56762;49.494;11.768;2023-03-12T08:04:01;2.61;75.39
69543;SHT31;56762;49.494;11.768;2023-03-12T08:06:29;2.73;75.86
69543;SHT31;56762;49.494;11.768;2023-03-12T08:08:56;2.80;74.90
69543;SHT31;56762;49.494;11.768;2023-03-12T08:11:26;2.81;75.59
69543;SHT31;56762;49.494;11.768;2023-03-12T08:13:56;2.86;75.15
69543;SHT31;56762;49.494;11.768;2023-03-12T08:16:24;2.90;75.08
69543;SHT31;56762;49.494;11.768;2023-03-12T08:18:52;3.05;75.09
69543;SHT31;56762;49.494;11.768;2023-03-12T08:21:20;3.18;73.35
69543;SHT31;56762;49.494;11.768;2023-03-12T08:23:50;3.39;74.48
69543;SHT31;56762;49.494;11.768;2023-03-12T08:26:17;3.55;73.59
69543;SHT31;56762;49.494;11.768;2023-03-12T08:28:46;3.56;72.71
69543;SHT31;56762;49.494;11.768;2023-03-12T08:31:14;3.73;72.25
69543;SHT31;56762;49.494;11.768;2023-03-12T08:33:42;3.87;72.55
69543;SHT31;56762;49.494;11.768;2023-03-12T08:36:10;3.92;71.40
69543;SHT31;56762;49.494;11.768;2023-03-12T08:38:37;4.03;71.65
69543;SHT31;56762;49.494;11.768;2023-03-12T08:41:05;4.03;70.87
69543;SHT31;56762;49.494;11.768;2023-03-12T08:43:33;4.04;70.13
69543;SHT31;56762;49.494;11.768;2023-03-12T08:46:03;4.04;69.42
69543;SHT31;56762;49.494;11.768;2023-03-12T08:48:31;4.13;69.83
69543;SHT31;56762;49.494;11.768;2023-03-12T08:51:00;4.18;70.05
69543;SHT31;56762;49.494;11.768;2023-03-12T08:53:31;4.24;70.18
69543;SHT31;56762;49.494;11.768;2023-03-12T08:55:59;4.36;70.28
69543;SHT31;56762;49.494;11.768;2023-03-12T08:58:27;4.47;69.07
69543;SHT31;56762;49.494;11.768;2023-03-12T09:00:56;4.52;69.18
69543;SHT31;56762;49.494;11.768;2023-03-12T09:03:25;4.61;69.65
69543;SHT31;56762;49.494;11.768;2023-03-12T09:06:04;4.71;67.77
69543;SHT31;56762;49.494;11.768;2023-03-12T09:08:35;4.85;68.59
69543;SHT31;56762;49.494;11.768;2023-03-12T09:11:03;4.95;68.81
69543;SHT31;56762;49.494;11.768;2023-03-12T09:13:30;4.93;68.09
69543;SHT31;56762;49.494;11.768;2023-03-12T09:16:18;5.00;67.14
69543;SHT31;56762;49.494;11.768;2023-03-12T09:18:47;5.11;68.00
69543;SHT31;56762;49.494;11.768;2023-03-12T09:21:15;5.23;67.69
69543;SHT31;56762;49.494;11.768;2023-03-12T09:23:42;5.33;67.41
69543;SHT31;56762;49.494;11.768;2023-03-12T09:26:10;5.51;68.19
69543;SHT31;56762;49.494;11.768;2023-03-12T09:28:39;5.55;66.14
69543;SHT31;56762;49.494;11.768;2023-03-12T09:31:08;5.61;66.20
69543;SHT31;56762;49.494;11.768;2023-03-12T09:33:36;5.67;65.64
69543;SHT31;56762;49.494;11.768;2023-03-12T09:36:06;5.77;64.23
69543;SHT31;56762;49.494;11.768;2023-03-12T09:38:34;5.94;64.70
69543;SHT31;56762;49.494;11.768;2023-03-12T09:41:11;6.02;64.37
69543;SHT31;56762;49.494;11.768;2023-03-12T09:43:41;6.08;62.29
69543;SHT31;56762;49.494;11.768;2023-03-12T09:46:17;6.08;63.42
69543;SHT31;56762;49.494;11.768;2023-03-12T09:48:46;6.08;61.21
69543;SHT31;56762;49.494;11.768;2023-03-12T09:51:21;6.21;62.19
69543;SHT31;56762;49.494;11.768;2023-03-12T09:53:53;6.21;60.53
69543;SHT31;56762;49.494;11.768;2023-03-12T09:56:22;6.26;59.21
69543;SHT31;56762;49.494;11.768;2023-03-12T09:58:50;6.28;61.25
69543;SHT31;56762;49.494;11.768;2023-03-12T10:01:36;6.32;61.25
69543;SHT31;56762;49.494;11.768;2023-03-12T10:04:18;6.44;60.21
69543;SHT31;56762;49.494;11.768;2023-03-12T10:06:52;6.72;61.94
69543;SHT31;56762;49.494;11.768;2023-03-12T10:09:31;6.87;60.46
69543;SHT31;56762;49.494;11.768;2023-03-12T10:12:09;7.07;56.48
69543;SHT31;56762;49.494;11.768;2023-03-12T10:14:50;7.14;55.77
69543;SHT31;56762;49.494;11.768;2023-03-12T10:17:31;7.07;55.04
69543;SHT31;56762;49.494;11.768;2023-03-12T10:20:21;7.07;55.34
69543;SHT31;56762;49.494;11.768;2023-03-12T10:22:57;6.95;55.08
69543;SHT31;56762;49.494;11.768;2023-03-12T10:25:28;6.88;54.63
69543;SHT31;56762;49.494;11.768;2023-03-12T10:28:03;6.87;55.82
69543;SHT31;56762;49.494;11.768;2023-03-12T10:30:40;6.88;55.63
69543;SHT31;56762;49.494;11.768;2023-03-12T10:33:12;6.95;55.71
69543;SHT31;56762;49.494;11.768;2023-03-12T10:35:42;6.95;56.57
69543;SHT31;56762;49.494;11.768;2023-03-12T10:38:15;7.01;57.13
69543;SHT31;56762;49.494;11.768;2023-03-12T10:40:43;7.08;56.12
69543;SHT31;56762;49.494;11.768;2023-03-12T10:43:11;7.15;55.99
69543;SHT31;56762;49.494;11.768;2023-03-12T10:45:42;7.16;57.08
69543;SHT31;56762;49.494;11.768;2023-03-12T10:48:18;7.24;56.94
69543;SHT31;56762;49.494;11.768;2023-03-12T10:51:00;7.26;57.06
69543;SHT31;56762;49.494;11.768;2023-03-12T10:53:30;7.36;57.69
69543;SHT31;56762;49.494;11.768;2023-03-12T10:56:01;7.38;57.15
69543;SHT31;56762;49.494;11.768;2023-03-12T10:58:34;7.51;57.73
69543;SHT31;56762;49.494;11.768;2023-03-12T11:01:04;7.62;57.89
69543;SHT31;56762;49.494;11.768;2023-03-12T11:03:32;7.61;56.75
69543;SHT31;56762;49.494;11.768;2023-03-12T11:06:01;7.59;56.36
69543;SHT31;56762;49.494;11.768;2023-03-12T11:08:32;7.63;57.18
69543;SHT31;56762;49.494;11.768;2023-03-12T11:11:02;7.69;57.75
69543;SHT31;56762;49.494;11.768;2023-03-12T11:13:37;7.73;58.68
69543;SHT31;56762;49.494;11.768;2023-03-12T11:16:23;7.58;57.63
69543;SHT31;56762;49.494;11.768;2023-03-12T11:18:57;7.67;57.33
69543;SHT31;56762;49.494;11.768;2023-03-12T11:21:26;7.59;58.79
69543;SHT31;56762;49.494;11.768;2023-03-12T11:24:08;7.52;59.42
69543;SHT31;56762;49.494;11.768;2023-03-12T11:26:43;7.44;60.28
69543;SHT31;56762;49.494;11.768;2023-03-12T11:29:21;7.31;60.50
69543;SHT31;56762;49.494;11.768;2023-03-12T11:31:57;7.05;62.61
69543;SHT31;56762;49.494;11.768;2023-03-12T11:34:27;6.91;64.65
69543;SHT31;56762;49.494;11.768;2023-03-12T11:37:04;6.73;65.89
69543;SHT31;56762;49.494;11.768;2023-03-12T11:39:41;6.58;67.21
69543;SHT31;56762;49.494;11.768;2023-03-12T11:42:22;6.58;68.48
69543;SHT31;56762;49.494;11.768;2023-03-12T11:44:59;6.58;68.83
69543;SHT31;56762;49.494;11.768;2023-03-12T11:47:44;6.63;69.56
69543;SHT31;56762;49.494;11.768;2023-03-12T11:50:25;6.66;69.17
69543;SHT31;56762;49.494;11.768;2023-03-12T11:53:03;6.64;69.58
69543;SHT31;56762;49.494;11.768;2023-03-12T11:55:41;6.69;70.38
69543;SHT31;56762;49.494;11.768;2023-03-12T11:58:26;6.73;69.07
69543;SHT31;56762;49.494;11.768;2023-03-12T12:01:04;6.79;69.03
69543;SHT31;56762;49.494;11.768;2023-03-12T12:03:59;6.80;68.70
69543;SHT31;56762;49.494;11.768;2023-03-12T12:06:36;6.76;69.58
69543;SHT31;56762;49.494;11.768;2023-03-12T12:09:20;6.76;70.50
69543;SHT31;56762;49.494;11.768;2023-03-12T12:12:08;6.73;70.65
69543;SHT31;56762;49.494;11.768;2023-03-12T12:14:48;6.83;70.50
69543;SHT31;56762;49.494;11.768;2023-03-12T12:17:26;6.74;70.67
69543;SHT31;56762;49.494;11.768;2023-03-12T12:20:08;6.66;71.06
69543;SHT31;56762;49.494;11.768;2023-03-12T12:22:47;6.62;72.13
69543;SHT31;56762;49.494;11.768;2023-03-12T12:25:24;6.60;73.14
69543;SHT31;56762;49.494;11.768;2023-03-12T12:28:12;6.49;73.14
69543;SHT31;56762;49.494;11.768;2023-03-12T12:30:50;6.46;74.57
69543;SHT31;56762;49.494;11.768;2023-03-12T12:33:28;6.52;74.71
69543;SHT31;56762;49.494;11.768;2023-03-12T12:35:59;6.44;75.84
69543;SHT31;56762;49.494;11.768;2023-03-12T12:38:31;6.35;76.43
69543;SHT31;56762;49.494;11.768;2023-03-12T12:41:06;6.29;75.68
69543;SHT31;56762;49.494;11.768;2023-03-12T12:43:38;6.33;75.50
69543;SHT31;56762;49.494;11.768;2023-03-12T12:46:09;6.26;75.85
69543;SHT31;56762;49.494;11.768;2023-03-12T12:48:40;6.26;75.97
69543;SHT31;56762;49.494;11.768;2023-03-12T12:51:10;6.25;76.02
69543;SHT31;56762;49.494;11.768;2023-03-12T12:53:43;6.29;75.96
69543;SHT31;56762;49.494;11.768;2023-03-12T12:56:18;6.39;75.70
69543;SHT31;56762;49.494;11.768;2023-03-12T12:58:59;6.50;75.83
69543;SHT31;56762;49.494;11.768;2023-03-12T13:01:30;6.53;75.73
69543;SHT31;56762;49.494;11.768;2023-03-12T13:04:02;6.43;75.49
69543;SHT31;56762;49.494;11.768;2023-03-12T13:06:55;6.36;75.78
69543;SHT31;56762;49.494;11.768;2023-03-12T13:09:35;6.39;76.15
69543;SHT31;56762;49.494;11.768;2023-03-12T13:12:12;6.37;75.47
69543;SHT31;56762;49.494;11.768;2023-03-12T13:14:42;6.36;75.45
69543;SHT31;56762;49.494;11.768;2023-03-12T13:17:28;6.13;76.78
69543;SHT31;56762;49.494;11.768;2023-03-12T13:20:11;6.12;77.68
69543;SHT31;56762;49.494;11.768;2023-03-12T13:22:51;6.12;77.74
69543;SHT31;56762;49.494;11.768;2023-03-12T13:25:27;6.13;77.65
69543;SHT31;56762;49.494;11.768;2023-03-12T13:27:59;6.02;78.20
69543;SHT31;56762;49.494;11.768;2023-03-12T13:30:50;5.98;78.79
69543;SHT31;56762;49.494;11.768;2023-03-12T13:33:35;5.95;78.85
69543;SHT31;56762;49.494;11.768;2023-03-12T13:36:17;6.01;79.45
69543;SHT31;56762;49.494;11.768;2023-03-12T13:38:57;5.92;79.45
69543;SHT31;56762;49.494;11.768;2023-03-12T13:41:34;6.02;80.04
69543;SHT31;56762;49.494;11.768;2023-03-12T13:47:20;6.02;80.34
69543;SHT31;56762;49.494;11.768;2023-03-12T13:49:53;6.15;80.04
69543;SHT31;56762;49.494;11.768;2023-03-12T13:52:23;6.15;80.13
69543;SHT31;56762;49.494;11.768;2023-03-12T13:55:00;6.15;80.21
69543;SHT31;56762;49.494;11.768;2023-03-12T13:57:33;6.15;80.15
69543;SHT31;56762;49.494;11.768;2023-03-12T14:00:11;6.15;80.47
69543;SHT31;56762;49.494;11.768;2023-03-12T14:02:48;6.19;79.86
69543;SHT31;56762;49.494;11.768;2023-03-12T14:05:17;6.16;80.44
69543;SHT31;56762;49.494;11.768;2023-03-12T14:08:10;6.16;80.68
69543;SHT31;56762;49.494;11.768;2023-03-12T14:10:48;6.15;80.61
69543;SHT31;56762;49.494;11.768;2023-03-12T14:13:28;6.01;81.00
69543;SHT31;56762;49.494;11.768;2023-03-12T14:16:03;5.97;81.29
69543;SHT31;56762;49.494;11.768;2023-03-12T14:18:34;5.94;81.64
69543;SHT31;56762;49.494;11.768;2023-03-12T14:21:07;5.98;81.48
69543;SHT31;56762;49.494;11.768;2023-03-12T14:23:38;5.94;81.70
69543;SHT31;56762;49.494;11.768;2023-03-12T14:26:06;5.94;81.82
69543;SHT31;56762;49.494;11.768;2023-03-12T14:28:38;5.95;82.14
69543;SHT31;56762;49.494;11.768;2023-03-12T14:31:10;5.92;81.96
69543;SHT31;56762;49.494;11.768;2023-03-12T14:33:49;5.94;81.74
69543;SHT31;56762;49.494;11.768;2023-03-12T14:36:20;6.01;82.10
69543;SHT31;56762;49.494;11.768;2023-03-12T14:38:59;5.99;82.16
69543;SHT31;56762;49.494;11.768;2023-03-12T14:41:40;5.98;82.35
69543;SHT31;56762;49.494;11.768;2023-03-12T14:44:20;5.99;81.96
69543;SHT31;56762;49.494;11.768;2023-03-12T14:46:55;6.05;82.10
69543;SHT31;56762;49.494;11.768;2023-03-12T14:49:25;6.08;81.98
69543;SHT31;56762;49.494;11.768;2023-03-12T14:51:53;6.12;82.33
69543;SHT31;56762;49.494;11.768;2023-03-12T14:54:22;6.21;82.34
69543;SHT31;56762;49.494;11.768;2023-03-12T14:56:51;6.16;83.67
69543;SHT31;56762;49.494;11.768;2023-03-12T14:59:25;6.19;84.05
69543;SHT31;56762;49.494;11.768;2023-03-12T15:01:58;6.18;84.93
69543;SHT31;56762;49.494;11.768;2023-03-12T15:04:28;6.16;85.21
69543;SHT31;56762;49.494;11.768;2023-03-12T15:06:58;6.05;86.01
69543;SHT31;56762;49.494;11.768;2023-03-12T15:09:33;6.02;86.25
69543;SHT31;56762;49.494;11.768;2023-03-12T15:12:03;6.02;86.84
69543;SHT31;56762;49.494;11.768;2023-03-12T15:14:34;5.95;87.34
69543;SHT31;56762;49.494;11.768;2023-03-12T15:17:04;6.05;87.43
69543;SHT31;56762;49.494;11.768;2023-03-12T15:19:36;6.09;87.20
69543;SHT31;56762;49.494;11.768;2023-03-12T15:22:08;6.11;87.49
69543;SHT31;56762;49.494;11.768;2023-03-12T15:24:38;6.12;87.96
69543;SHT31;56762;49.494;11.768;2023-03-12T15:27:29;6.16;87.88
69543;SHT31;56762;49.494;11.768;2023-03-12T15:29:58;6.12;88.26
69543;SHT31;56762;49.494;11.768;2023-03-12T15:32:27;6.12;88.33
69543;SHT31;56762;49.494;11.768;2023-03-12T15:35:11;6.12;88.32
69543;SHT31;56762;49.494;11.768;2023-03-12T15:37:39;6.09;88.43
69543;SHT31;56762;49.494;11.768;2023-03-12T15:40:20;6.16;88.20
69543;SHT31;56762;49.494;11.768;2023-03-12T15:42:49;6.18;88.44
69543;SHT31;56762;49.494;11.768;2023-03-12T15:45:18;6.21;88.61
69543;SHT31;56762;49.494;11.768;2023-03-12T15:47:48;6.21;88.90
69543;SHT31;56762;49.494;11.768;2023-03-12T15:50:21;6.26;88.70
69543;SHT31;56762;49.494;11.768;2023-03-12T15:53:00;6.28;88.64